sensor_id;sensor_type;location;lat;lon;timestamp;P1;durP1;ratioP1;P2;durP2;ratioP2
1262;SDS011;62267;50.112;8.704;2023-02-21T00:00:43;15.20;;;7.70;;
1262;SDS011;62267;50.112;8.704;2023-02-21T00:03:31;8.73;;;6.63;;
1262;SDS011;62267;50.112;8.704;2023-02-21T00:06:19;9.37;;;7.00;;
1262;SDS011;62267;50.112;8.704;2023-02-21T00:09:05;8.50;;;6.80;;
1262;SDS011;62267;50.112;8.704;2023-02-21T00:11:51;11.10;;;7.43;;
1262;SDS011;62267;50.112;8.704;2023-02-21T00:14:37;7.20;;;6.57;;
1262;SDS011;62267;50.112;8.704;2023-02-21T00:17:24;9.30;;;6.53;;
1262;SDS011;62267;50.112;8.704;2023-02-21T00:20:10;16.10;;;8.00;;
1262;SDS011;62267;50.112;8.704;2023-02-21T00:22:56;12.10;;;7.37;;
1262;SDS011;62267;50.112;8.704;2023-02-21T00:25:42;12.77;;;7.10;;
1262;SDS011;62267;50.112;8.704;2023-02-21T00:28:30;9.00;;;6.70;;
1262;SDS011;62267;50.112;8.704;2023-02-21T00:31:17;16.53;;;7.30;;
1262;SDS011;62267;50.112;8.704;2023-02-21T00:34:03;11.33;;;7.63;;
1262;SDS011;62267;50.112;8.704;2023-02-21T00:36:51;12.20;;;7.70;;
1262;SDS011;62267;50.112;8.704;2023-02-21T00:39:37;15.50;;;7.73;;
1262;SDS011;62267;50.112;8.704;2023-02-21T00:42:23;11.00;;;7.20;;
1262;SDS011;62267;50.112;8.704;2023-02-21T00:45:09;9.47;;;6.73;;
1262;SDS011;62267;50.112;8.704;2023-02-21T00:47:57;12.60;;;8.30;;
1262;SDS011;62267;50.112;8.704;2023-02-21T00:50:43;10.77;;;7.00;;
1262;SDS011;62267;50.112;8.704;2023-02-21T00:53:29;11.47;;;7.37;;
1262;SDS011;62267;50.112;8.704;2023-02-21T00:56:16;7.43;;;6.70;;
1262;SDS011;62267;50.112;8.704;2023-02-21T00:59:02;9.20;;;7.10;;
1262;SDS011;62267;50.112;8.704;2023-02-21T01:01:49;13.10;;;7.33;;
1262;SDS011;62267;50.112;8.704;2023-02-21T01:04:36;11.50;;;6.67;;
1262;SDS011;62267;50.112;8.704;2023-02-21T01:07:22;13.00;;;7.30;;
1262;SDS011;62267;50.112;8.704;2023-02-21T01:10:09;14.37;;;7.73;;
1262;SDS011;62267;50.112;8.704;2023-02-21T01:12:57;9.03;;;6.83;;
1262;SDS011;62267;50.112;8.704;2023-02-21T01:15:43;9.90;;;7.50;;
1262;SDS011;62267;50.112;8.704;2023-02-21T01:18:29;10.70;;;7.17;;
1262;SDS011;62267;50.112;8.704;2023-02-21T01:21:16;8.80;;;6.73;;
1262;SDS011;62267;50.112;8.704;2023-02-21T01:24:03;8.80;;;6.57;;
1262;SDS011;62267;50.112;8.704;2023-02-21T01:26:49;10.67;;;7.03;;
1262;SDS011;62267;50.112;8.704;2023-02-21T01:29:36;13.17;;;7.20;;
1262;SDS011;62267;50.112;8.704;2023-02-21T01:32:23;11.00;;;7.23;;
1262;SDS011;62267;50.112;8.704;2023-02-21T01:35:09;16.53;;;8.70;;
1262;SDS011;62267;50.112;8.704;2023-02-21T01:37:55;11.00;;;8.23;;
1262;SDS011;62267;50.112;8.704;2023-02-21T01:40:41;8.87;;;6.87;;
1262;SDS011;62267;50.112;8.704;2023-02-21T01:43:28;11.80;;;8.00;;
1262;SDS011;62267;50.112;8.704;2023-02-21T01:46:19;11.50;;;8.30;;
1262;SDS011;62267;50.112;8.704;2023-02-21T01:49:10;7.67;;;6.87;;
1262;SDS011;62267;50.112;8.704;2023-02-21T01:51:56;11.73;;;8.30;;
1262;SDS011;62267;50.112;8.704;2023-02-21T01:54:47;23.63;;;8.70;;
1262;SDS011;62267;50.112;8.704;2023-02-21T01:57:37;10.30;;;7.30;;
1262;SDS011;62267;50.112;8.704;2023-02-21T02:00:25;11.57;;;7.83;;
1262;SDS011;62267;50.112;8.704;2023-02-21T02:03:12;10.80;;;7.10;;
1262;SDS011;62267;50.112;8.704;2023-02-21T02:06:01;13.00;;;8.00;;
1262;SDS011;62267;50.112;8.704;2023-02-21T02:08:48;9.63;;;7.33;;
1262;SDS011;62267;50.112;8.704;2023-02-21T02:11:42;10.27;;;7.87;;
1262;SDS011;62267;50.112;8.704;2023-02-21T02:22:25;10.87;;;7.47;;
1262;SDS011;62267;50.112;8.704;2023-02-21T02:30:27;13.20;;;8.60;;
1262;SDS011;62267;50.112;8.704;2023-02-21T02:35:49;14.63;;;8.57;;
1262;SDS011;62267;50.112;8.704;2023-02-21T02:41:46;8.87;;;7.23;;
1262;SDS011;62267;50.112;8.704;2023-02-21T02:44:05;13.10;;;8.83;;
1262;SDS011;62267;50.112;8.704;2023-02-21T02:46:36;8.63;;;7.40;;
1262;SDS011;62267;50.112;8.704;2023-02-21T02:49:06;10.33;;;7.80;;
1262;SDS011;62267;50.112;8.704;2023-02-21T02:51:35;10.63;;;7.47;;
1262;SDS011;62267;50.112;8.704;2023-02-21T02:54:05;16.20;;;10.00;;
1262;SDS011;62267;50.112;8.704;2023-02-21T02:56:33;11.00;;;7.60;;
1262;SDS011;62267;50.112;8.704;2023-02-21T02:59:04;14.80;;;9.07;;
1262;SDS011;62267;50.112;8.704;2023-02-21T03:01:44;12.33;;;8.40;;
1262;SDS011;62267;50.112;8.704;2023-02-21T03:12:28;11.53;;;7.47;;
1262;SDS011;62267;50.112;8.704;2023-02-21T03:15:01;13.30;;;8.47;;
1262;SDS011;62267;50.112;8.704;2023-02-21T03:17:29;10.00;;;8.50;;
1262;SDS011;62267;50.112;8.704;2023-02-21T03:19:58;10.63;;;8.40;;
1262;SDS011;62267;50.112;8.704;2023-02-21T03:22:29;14.87;;;9.47;;
1262;SDS011;62267;50.112;8.704;2023-02-21T03:24:57;12.70;;;8.67;;
1262;SDS011;62267;50.112;8.704;2023-02-21T03:27:27;13.33;;;9.37;;
1262;SDS011;62267;50.112;8.704;2023-02-21T03:29:59;13.40;;;9.57;;
1262;SDS011;62267;50.112;8.704;2023-02-21T03:32:31;15.67;;;8.80;;
1262;SDS011;62267;50.112;8.704;2023-02-21T03:35:00;11.03;;;8.30;;
1262;SDS011;62267;50.112;8.704;2023-02-21T03:39:56;9.53;;;8.33;;
1262;SDS011;62267;50.112;8.704;2023-02-21T03:42:23;12.83;;;9.70;;
1262;SDS011;62267;50.112;8.704;2023-02-21T03:44:52;12.50;;;9.70;;
1262;SDS011;62267;50.112;8.704;2023-02-21T03:47:19;14.20;;;9.77;;
1262;SDS011;62267;50.112;8.704;2023-02-21T03:49:46;14.53;;;9.23;;
1262;SDS011;62267;50.112;8.704;2023-02-21T03:52:13;14.00;;;9.40;;
1262;SDS011;62267;50.112;8.704;2023-02-21T03:54:41;11.50;;;9.77;;
1262;SDS011;62267;50.112;8.704;2023-02-21T03:57:13;16.10;;;11.10;;
1262;SDS011;62267;50.112;8.704;2023-02-21T03:59:43;16.00;;;10.03;;
1262;SDS011;62267;50.112;8.704;2023-02-21T04:02:12;15.50;;;10.10;;
1262;SDS011;62267;50.112;8.704;2023-02-21T04:04:39;15.27;;;10.17;;
1262;SDS011;62267;50.112;8.704;2023-02-21T04:07:12;16.53;;;9.60;;
1262;SDS011;62267;50.112;8.704;2023-02-21T04:09:40;14.97;;;9.20;;
1262;SDS011;62267;50.112;8.704;2023-02-21T04:12:10;10.57;;;8.50;;
1262;SDS011;62267;50.112;8.704;2023-02-21T04:14:39;11.60;;;8.70;;
1262;SDS011;62267;50.112;8.704;2023-02-21T04:17:07;20.90;;;10.77;;
1262;SDS011;62267;50.112;8.704;2023-02-21T04:19:34;19.10;;;10.47;;
1262;SDS011;62267;50.112;8.704;2023-02-21T04:22:03;14.30;;;10.17;;
1262;SDS011;62267;50.112;8.704;2023-02-21T04:24:31;16.47;;;9.80;;
1262;SDS011;62267;50.112;8.704;2023-02-21T04:27:02;13.70;;;8.73;;
1262;SDS011;62267;50.112;8.704;2023-02-21T04:29:36;14.80;;;10.07;;
1262;SDS011;62267;50.112;8.704;2023-02-21T04:32:03;11.47;;;9.10;;
1262;SDS011;62267;50.112;8.704;2023-02-21T04:34:31;15.03;;;9.70;;
1262;SDS011;62267;50.112;8.704;2023-02-21T04:36:59;13.37;;;9.70;;
1262;SDS011;62267;50.112;8.704;2023-02-21T04:39:28;14.73;;;10.07;;
1262;SDS011;62267;50.112;8.704;2023-02-21T04:41:55;12.33;;;10.07;;
1262;SDS011;62267;50.112;8.704;2023-02-21T04:44:22;13.97;;;10.30;;
1262;SDS011;62267;50.112;8.704;2023-02-21T04:46:49;18.30;;;10.90;;
1262;SDS011;62267;50.112;8.704;2023-02-21T04:49:17;15.53;;;10.57;;
1262;SDS011;62267;50.112;8.704;2023-02-21T04:51:44;15.57;;;10.40;;
1262;SDS011;62267;50.112;8.704;2023-02-21T04:54:11;12.60;;;9.60;;
1262;SDS011;62267;50.112;8.704;2023-02-21T04:56:39;12.40;;;10.67;;
1262;SDS011;62267;50.112;8.704;2023-02-21T04:59:06;14.33;;;9.90;;
1262;SDS011;62267;50.112;8.704;2023-02-21T05:01:33;16.17;;;10.13;;
1262;SDS011;62267;50.112;8.704;2023-02-21T05:04:01;16.87;;;11.40;;
1262;SDS011;62267;50.112;8.704;2023-02-21T05:06:30;14.43;;;9.80;;
1262;SDS011;62267;50.112;8.704;2023-02-21T05:08:58;15.27;;;10.23;;
1262;SDS011;62267;50.112;8.704;2023-02-21T05:11:25;12.93;;;9.77;;
1262;SDS011;62267;50.112;8.704;2023-02-21T05:13:53;18.37;;;11.40;;
1262;SDS011;62267;50.112;8.704;2023-02-21T05:16:20;19.00;;;10.90;;
1262;SDS011;62267;50.112;8.704;2023-02-21T05:18:47;14.50;;;10.63;;
1262;SDS011;62267;50.112;8.704;2023-02-21T05:21:16;15.00;;;11.57;;
1262;SDS011;62267;50.112;8.704;2023-02-21T05:23:45;16.00;;;11.70;;
1262;SDS011;62267;50.112;8.704;2023-02-21T05:26:23;17.00;;;11.17;;
1262;SDS011;62267;50.112;8.704;2023-02-21T05:28:51;18.40;;;12.30;;
1262;SDS011;62267;50.112;8.704;2023-02-21T05:31:19;18.67;;;11.70;;
1262;SDS011;62267;50.112;8.704;2023-02-21T05:33:48;15.87;;;12.10;;
1262;SDS011;62267;50.112;8.704;2023-02-21T05:36:15;19.90;;;12.33;;
1262;SDS011;62267;50.112;8.704;2023-02-21T05:38:53;18.60;;;11.50;;
1262;SDS011;62267;50.112;8.704;2023-02-21T05:41:20;16.43;;;11.57;;
1262;SDS011;62267;50.112;8.704;2023-02-21T05:43:48;16.10;;;11.83;;
1262;SDS011;62267;50.112;8.704;2023-02-21T05:46:20;17.43;;;11.90;;
1262;SDS011;62267;50.112;8.704;2023-02-21T05:48:47;14.93;;;11.43;;
1262;SDS011;62267;50.112;8.704;2023-02-21T05:51:15;18.23;;;12.40;;
1262;SDS011;62267;50.112;8.704;2023-02-21T05:53:42;14.20;;;12.03;;
1262;SDS011;62267;50.112;8.704;2023-02-21T05:56:09;16.67;;;12.83;;
1262;SDS011;62267;50.112;8.704;2023-02-21T05:58:37;22.53;;;12.30;;
1262;SDS011;62267;50.112;8.704;2023-02-21T06:01:04;18.43;;;12.20;;
1262;SDS011;62267;50.112;8.704;2023-02-21T06:03:32;18.77;;;12.80;;
1262;SDS011;62267;50.112;8.704;2023-02-21T06:05:59;15.23;;;11.33;;
1262;SDS011;62267;50.112;8.704;2023-02-21T06:08:27;15.53;;;12.00;;
1262;SDS011;62267;50.112;8.704;2023-02-21T06:10:55;23.00;;;13.33;;
1262;SDS011;62267;50.112;8.704;2023-02-21T06:13:22;19.93;;;12.53;;
1262;SDS011;62267;50.112;8.704;2023-02-21T06:15:49;18.30;;;12.50;;
1262;SDS011;62267;50.112;8.704;2023-02-21T06:18:17;17.73;;;12.53;;
1262;SDS011;62267;50.112;8.704;2023-02-21T06:20:44;16.70;;;12.20;;
1262;SDS011;62267;50.112;8.704;2023-02-21T06:23:12;21.30;;;12.30;;
1262;SDS011;62267;50.112;8.704;2023-02-21T06:25:40;20.90;;;12.60;;
1262;SDS011;62267;50.112;8.704;2023-02-21T06:28:07;17.57;;;13.40;;
1262;SDS011;62267;50.112;8.704;2023-02-21T06:30:35;18.00;;;11.93;;
1262;SDS011;62267;50.112;8.704;2023-02-21T06:33:02;19.90;;;12.87;;
1262;SDS011;62267;50.112;8.704;2023-02-21T06:35:29;22.60;;;13.10;;
1262;SDS011;62267;50.112;8.704;2023-02-21T06:37:56;18.77;;;14.60;;
1262;SDS011;62267;50.112;8.704;2023-02-21T06:40:23;23.30;;;13.67;;
1262;SDS011;62267;50.112;8.704;2023-02-21T06:42:51;14.97;;;12.50;;
1262;SDS011;62267;50.112;8.704;2023-02-21T06:45:18;18.40;;;12.63;;
1262;SDS011;62267;50.112;8.704;2023-02-21T06:47:45;19.77;;;13.03;;
1262;SDS011;62267;50.112;8.704;2023-02-21T06:50:12;16.80;;;12.83;;
1262;SDS011;62267;50.112;8.704;2023-02-21T06:52:40;18.43;;;12.80;;
1262;SDS011;62267;50.112;8.704;2023-02-21T06:55:08;21.00;;;14.53;;
1262;SDS011;62267;50.112;8.704;2023-02-21T06:57:35;17.50;;;12.57;;
1262;SDS011;62267;50.112;8.704;2023-02-21T07:00:04;23.50;;;13.63;;
1262;SDS011;62267;50.112;8.704;2023-02-21T07:02:31;20.97;;;14.10;;
1262;SDS011;62267;50.112;8.704;2023-02-21T07:04:58;17.00;;;13.03;;
1262;SDS011;62267;50.112;8.704;2023-02-21T07:07:25;19.30;;;12.47;;
1262;SDS011;62267;50.112;8.704;2023-02-21T07:09:53;22.60;;;13.10;;
1262;SDS011;62267;50.112;8.704;2023-02-21T07:12:20;20.40;;;13.50;;
1262;SDS011;62267;50.112;8.704;2023-02-21T07:14:47;21.77;;;12.70;;
1262;SDS011;62267;50.112;8.704;2023-02-21T07:17:14;20.10;;;12.70;;
1262;SDS011;62267;50.112;8.704;2023-02-21T07:19:41;18.37;;;13.00;;
1262;SDS011;62267;50.112;8.704;2023-02-21T07:22:09;21.80;;;13.57;;
1262;SDS011;62267;50.112;8.704;2023-02-21T07:24:37;21.83;;;14.70;;
1262;SDS011;62267;50.112;8.704;2023-02-21T07:27:04;19.20;;;13.70;;
1262;SDS011;62267;50.112;8.704;2023-02-21T07:29:32;20.53;;;14.20;;
1262;SDS011;62267;50.112;8.704;2023-02-21T07:31:59;20.03;;;14.40;;
1262;SDS011;62267;50.112;8.704;2023-02-21T07:34:26;24.07;;;13.70;;
1262;SDS011;62267;50.112;8.704;2023-02-21T07:36:54;21.67;;;13.60;;
1262;SDS011;62267;50.112;8.704;2023-02-21T07:39:23;20.13;;;12.60;;
1262;SDS011;62267;50.112;8.704;2023-02-21T07:41:52;22.10;;;14.07;;
1262;SDS011;62267;50.112;8.704;2023-02-21T07:44:27;22.60;;;13.40;;
1262;SDS011;62267;50.112;8.704;2023-02-21T07:46:56;17.27;;;13.90;;
1262;SDS011;62267;50.112;8.704;2023-02-21T07:49:23;18.77;;;13.10;;
1262;SDS011;62267;50.112;8.704;2023-02-21T07:51:51;23.97;;;15.30;;
1262;SDS011;62267;50.112;8.704;2023-02-21T07:54:18;21.63;;;14.83;;
1262;SDS011;62267;50.112;8.704;2023-02-21T07:56:46;18.37;;;13.93;;
1262;SDS011;62267;50.112;8.704;2023-02-21T07:59:14;27.70;;;14.27;;
1262;SDS011;62267;50.112;8.704;2023-02-21T08:01:42;19.73;;;14.53;;
1262;SDS011;62267;50.112;8.704;2023-02-21T08:04:09;21.50;;;13.40;;
1262;SDS011;62267;50.112;8.704;2023-02-21T08:06:36;206.27;;;49.13;;
1262;SDS011;62267;50.112;8.704;2023-02-21T08:09:07;21.77;;;14.53;;
1262;SDS011;62267;50.112;8.704;2023-02-21T08:11:34;23.13;;;14.97;;
1262;SDS011;62267;50.112;8.704;2023-02-21T08:14:09;24.07;;;13.80;;
1262;SDS011;62267;50.112;8.704;2023-02-21T08:16:36;29.23;;;15.10;;
1262;SDS011;62267;50.112;8.704;2023-02-21T08:19:03;20.27;;;14.10;;
1262;SDS011;62267;50.112;8.704;2023-02-21T08:21:31;22.77;;;15.63;;
1262;SDS011;62267;50.112;8.704;2023-02-21T08:24:00;28.80;;;16.00;;
1262;SDS011;62267;50.112;8.704;2023-02-21T08:26:27;23.23;;;15.03;;
1262;SDS011;62267;50.112;8.704;2023-02-21T08:28:56;20.43;;;14.13;;
1262;SDS011;62267;50.112;8.704;2023-02-21T08:31:23;19.07;;;13.70;;
1262;SDS011;62267;50.112;8.704;2023-02-21T08:33:54;26.30;;;15.10;;
1262;SDS011;62267;50.112;8.704;2023-02-21T08:36:21;23.20;;;14.10;;
1262;SDS011;62267;50.112;8.704;2023-02-21T08:38:57;21.83;;;15.13;;
1262;SDS011;62267;50.112;8.704;2023-02-21T08:41:33;20.10;;;15.33;;
1262;SDS011;62267;50.112;8.704;2023-02-21T08:44:02;35.13;;;17.27;;
1262;SDS011;62267;50.112;8.704;2023-02-21T08:46:29;25.43;;;14.83;;
1262;SDS011;62267;50.112;8.704;2023-02-21T08:49:02;20.97;;;15.73;;
1262;SDS011;62267;50.112;8.704;2023-02-21T08:51:30;20.50;;;14.57;;
1262;SDS011;62267;50.112;8.704;2023-02-21T08:53:58;25.43;;;14.77;;
1262;SDS011;62267;50.112;8.704;2023-02-21T08:56:25;23.50;;;15.90;;
1262;SDS011;62267;50.112;8.704;2023-02-21T08:58:53;21.83;;;15.53;;
1262;SDS011;62267;50.112;8.704;2023-02-21T09:01:21;23.33;;;13.00;;
1262;SDS011;62267;50.112;8.704;2023-02-21T09:03:49;23.53;;;13.70;;
1262;SDS011;62267;50.112;8.704;2023-02-21T09:06:17;24.90;;;14.57;;
1262;SDS011;62267;50.112;8.704;2023-02-21T09:08:44;23.70;;;15.90;;
1262;SDS011;62267;50.112;8.704;2023-02-21T09:11:11;18.63;;;13.13;;
1262;SDS011;62267;50.112;8.704;2023-02-21T09:13:39;19.03;;;14.33;;
1262;SDS011;62267;50.112;8.704;2023-02-21T09:16:07;25.13;;;15.70;;
1262;SDS011;62267;50.112;8.704;2023-02-21T09:18:34;20.77;;;14.10;;
1262;SDS011;62267;50.112;8.704;2023-02-21T09:21:02;23.87;;;15.63;;
1262;SDS011;62267;50.112;8.704;2023-02-21T09:23:31;17.50;;;13.43;;
1262;SDS011;62267;50.112;8.704;2023-02-21T09:25:58;21.07;;;13.90;;
1262;SDS011;62267;50.112;8.704;2023-02-21T09:28:25;19.77;;;14.50;;
1262;SDS011;62267;50.112;8.704;2023-02-21T09:30:54;25.33;;;16.27;;
1262;SDS011;62267;50.112;8.704;2023-02-21T09:33:22;19.00;;;14.70;;
1262;SDS011;62267;50.112;8.704;2023-02-21T09:35:50;17.03;;;14.63;;
1262;SDS011;62267;50.112;8.704;2023-02-21T09:38:20;21.40;;;15.30;;
1262;SDS011;62267;50.112;8.704;2023-02-21T09:40:48;18.90;;;13.43;;
1262;SDS011;62267;50.112;8.704;2023-02-21T09:43:32;24.40;;;15.77;;
1262;SDS011;62267;50.112;8.704;2023-02-21T09:46:02;19.67;;;13.67;;
1262;SDS011;62267;50.112;8.704;2023-02-21T09:48:30;24.33;;;15.40;;
1262;SDS011;62267;50.112;8.704;2023-02-21T09:50:59;20.50;;;13.73;;
1262;SDS011;62267;50.112;8.704;2023-02-21T09:53:29;24.80;;;15.10;;
1262;SDS011;62267;50.112;8.704;2023-02-21T09:56:04;26.30;;;14.47;;
1262;SDS011;62267;50.112;8.704;2023-02-21T09:58:33;21.53;;;14.30;;
1262;SDS011;62267;50.112;8.704;2023-02-21T10:01:03;17.90;;;13.73;;
1262;SDS011;62267;50.112;8.704;2023-02-21T10:06:11;19.40;;;13.90;;
1262;SDS011;62267;50.112;8.704;2023-02-21T10:11:16;25.97;;;14.30;;
1262;SDS011;62267;50.112;8.704;2023-02-21T10:13:53;25.63;;;15.23;;
1262;SDS011;62267;50.112;8.704;2023-02-21T10:16:32;21.70;;;14.70;;
1262;SDS011;62267;50.112;8.704;2023-02-21T10:21:37;20.47;;;14.73;;
1262;SDS011;62267;50.112;8.704;2023-02-21T10:24:13;20.47;;;13.83;;
1262;SDS011;62267;50.112;8.704;2023-02-21T10:26:41;19.17;;;14.10;;
1262;SDS011;62267;50.112;8.704;2023-02-21T10:29:17;22.83;;;15.63;;
1262;SDS011;62267;50.112;8.704;2023-02-21T10:31:46;20.63;;;15.20;;
1262;SDS011;62267;50.112;8.704;2023-02-21T10:34:22;20.97;;;13.10;;
1262;SDS011;62267;50.112;8.704;2023-02-21T10:36:52;23.93;;;14.30;;
1262;SDS011;62267;50.112;8.704;2023-02-21T10:39:21;23.63;;;14.83;;
1262;SDS011;62267;50.112;8.704;2023-02-21T10:41:52;19.37;;;15.03;;
1262;SDS011;62267;50.112;8.704;2023-02-21T10:44:25;18.87;;;13.40;;
1262;SDS011;62267;50.112;8.704;2023-02-21T10:47:05;20.23;;;13.90;;
1262;SDS011;62267;50.112;8.704;2023-02-21T10:49:43;18.93;;;14.10;;
1262;SDS011;62267;50.112;8.704;2023-02-21T10:52:13;21.50;;;14.53;;
1262;SDS011;62267;50.112;8.704;2023-02-21T10:54:59;18.50;;;14.50;;
1262;SDS011;62267;50.112;8.704;2023-02-21T10:57:28;20.73;;;15.17;;
1262;SDS011;62267;50.112;8.704;2023-02-21T10:59:56;19.83;;;14.20;;
1262;SDS011;62267;50.112;8.704;2023-02-21T11:02:27;18.83;;;13.83;;
1262;SDS011;62267;50.112;8.704;2023-02-21T11:04:55;21.23;;;14.30;;
1262;SDS011;62267;50.112;8.704;2023-02-21T11:07:33;18.50;;;13.80;;
1262;SDS011;62267;50.112;8.704;2023-02-21T11:10:01;23.20;;;13.40;;
1262;SDS011;62267;50.112;8.704;2023-02-21T11:12:28;28.60;;;19.47;;
1262;SDS011;62267;50.112;8.704;2023-02-21T11:17:25;19.17;;;11.60;;
1262;SDS011;62267;50.112;8.704;2023-02-21T11:20:03;22.63;;;13.70;;
1262;SDS011;62267;50.112;8.704;2023-02-21T11:22:41;16.00;;;11.93;;
1262;SDS011;62267;50.112;8.704;2023-02-21T11:25:20;17.47;;;11.87;;
1262;SDS011;62267;50.112;8.704;2023-02-21T11:28:05;14.33;;;11.60;;
1262;SDS011;62267;50.112;8.704;2023-02-21T11:30:35;18.20;;;11.40;;
1262;SDS011;62267;50.112;8.704;2023-02-21T11:33:04;14.67;;;11.43;;
1262;SDS011;62267;50.112;8.704;2023-02-21T11:35:33;18.10;;;11.83;;
1262;SDS011;62267;50.112;8.704;2023-02-21T11:38:05;15.23;;;11.60;;
1262;SDS011;62267;50.112;8.704;2023-02-21T11:40:41;17.23;;;12.00;;
1262;SDS011;62267;50.112;8.704;2023-02-21T11:43:24;23.73;;;14.13;;
1262;SDS011;62267;50.112;8.704;2023-02-21T11:45:55;15.27;;;11.63;;
1262;SDS011;62267;50.112;8.704;2023-02-21T11:48:26;16.80;;;11.43;;
1262;SDS011;62267;50.112;8.704;2023-02-21T11:50:57;20.67;;;12.77;;
1262;SDS011;62267;50.112;8.704;2023-02-21T11:53:30;17.33;;;12.47;;
1262;SDS011;62267;50.112;8.704;2023-02-21T11:56:06;18.10;;;12.03;;
1262;SDS011;62267;50.112;8.704;2023-02-21T11:58:40;17.97;;;12.37;;
1262;SDS011;62267;50.112;8.704;2023-02-21T12:01:14;18.70;;;12.20;;
1262;SDS011;62267;50.112;8.704;2023-02-21T12:03:59;15.57;;;11.80;;
1262;SDS011;62267;50.112;8.704;2023-02-21T12:09:13;17.50;;;12.60;;
1262;SDS011;62267;50.112;8.704;2023-02-21T12:11:43;15.37;;;12.07;;
1262;SDS011;62267;50.112;8.704;2023-02-21T12:14:18;13.20;;;10.83;;
1262;SDS011;62267;50.112;8.704;2023-02-21T12:19:32;18.93;;;12.10;;
1262;SDS011;62267;50.112;8.704;2023-02-21T12:22:16;16.57;;;12.90;;
1262;SDS011;62267;50.112;8.704;2023-02-21T12:24:59;17.03;;;11.80;;
1262;SDS011;62267;50.112;8.704;2023-02-21T12:30:23;16.27;;;11.77;;
1262;SDS011;62267;50.112;8.704;2023-02-21T12:38:12;20.00;;;11.93;;
1262;SDS011;62267;50.112;8.704;2023-02-21T12:43:21;15.70;;;10.47;;
1262;SDS011;62267;50.112;8.704;2023-02-21T12:45:57;18.87;;;11.83;;
1262;SDS011;62267;50.112;8.704;2023-02-21T12:48:30;18.70;;;11.40;;
1262;SDS011;62267;50.112;8.704;2023-02-21T12:51:00;17.27;;;11.40;;
1262;SDS011;62267;50.112;8.704;2023-02-21T12:56:31;15.80;;;11.57;;
1262;SDS011;62267;50.112;8.704;2023-02-21T12:58:55;19.20;;;12.87;;
1262;SDS011;62267;50.112;8.704;2023-02-21T13:01:25;12.93;;;10.13;;
1262;SDS011;62267;50.112;8.704;2023-02-21T13:04:07;17.00;;;11.70;;
1262;SDS011;62267;50.112;8.704;2023-02-21T13:06:42;14.17;;;10.23;;
1262;SDS011;62267;50.112;8.704;2023-02-21T13:09:32;12.67;;;9.90;;
1262;SDS011;62267;50.112;8.704;2023-02-21T13:12:23;24.73;;;16.10;;
1262;SDS011;62267;50.112;8.704;2023-02-21T13:14:50;17.10;;;11.20;;
1262;SDS011;62267;50.112;8.704;2023-02-21T13:17:21;12.40;;;9.73;;
1262;SDS011;62267;50.112;8.704;2023-02-21T13:19:52;15.07;;;10.93;;
1262;SDS011;62267;50.112;8.704;2023-02-21T13:22:21;14.33;;;10.60;;
1262;SDS011;62267;50.112;8.704;2023-02-21T13:25:20;15.27;;;11.50;;
1262;SDS011;62267;50.112;8.704;2023-02-21T13:27:55;12.87;;;10.13;;
1262;SDS011;62267;50.112;8.704;2023-02-21T13:30:27;14.40;;;9.83;;
1262;SDS011;62267;50.112;8.704;2023-02-21T13:33:01;12.80;;;10.67;;
1262;SDS011;62267;50.112;8.704;2023-02-21T13:35:33;15.93;;;10.30;;
1262;SDS011;62267;50.112;8.704;2023-02-21T13:38:01;12.50;;;10.33;;
1262;SDS011;62267;50.112;8.704;2023-02-21T13:40:36;23.10;;;12.53;;
1262;SDS011;62267;50.112;8.704;2023-02-21T13:45:32;12.57;;;9.73;;
1262;SDS011;62267;50.112;8.704;2023-02-21T13:55:35;12.53;;;9.10;;
1262;SDS011;62267;50.112;8.704;2023-02-21T14:08:22;11.83;;;9.93;;
1262;SDS011;62267;50.112;8.704;2023-02-21T14:21:06;11.40;;;7.47;;
1262;SDS011;62267;50.112;8.704;2023-02-21T14:23:46;10.03;;;8.93;;
1262;SDS011;62267;50.112;8.704;2023-02-21T14:31:45;11.07;;;7.97;;
1262;SDS011;62267;50.112;8.704;2023-02-21T14:34:14;9.20;;;7.10;;
1262;SDS011;62267;50.112;8.704;2023-02-21T14:36:43;10.00;;;7.10;;
1262;SDS011;62267;50.112;8.704;2023-02-21T14:39:10;10.33;;;7.53;;
1262;SDS011;62267;50.112;8.704;2023-02-21T14:44:11;8.50;;;7.03;;
1262;SDS011;62267;50.112;8.704;2023-02-21T14:49:41;9.07;;;7.97;;
1262;SDS011;62267;50.112;8.704;2023-02-21T15:00:07;7.63;;;6.93;;
1262;SDS011;62267;50.112;8.704;2023-02-21T15:05:15;7.40;;;6.70;;
1262;SDS011;62267;50.112;8.704;2023-02-21T15:08:13;9.70;;;7.57;;
1262;SDS011;62267;50.112;8.704;2023-02-21T15:10:42;9.63;;;7.50;;
1262;SDS011;62267;50.112;8.704;2023-02-21T15:16:07;8.07;;;7.10;;
1262;SDS011;62267;50.112;8.704;2023-02-21T15:18:37;7.40;;;6.70;;
1262;SDS011;62267;50.112;8.704;2023-02-21T15:23:35;8.40;;;7.40;;
1262;SDS011;62267;50.112;8.704;2023-02-21T15:28:44;7.40;;;6.63;;
1262;SDS011;62267;50.112;8.704;2023-02-21T15:31:14;8.07;;;6.87;;
1262;SDS011;62267;50.112;8.704;2023-02-21T15:33:44;8.93;;;6.30;;
1262;SDS011;62267;50.112;8.704;2023-02-21T15:36:15;8.50;;;6.97;;
1262;SDS011;62267;50.112;8.704;2023-02-21T15:41:37;9.80;;;8.10;;
1262;SDS011;62267;50.112;8.704;2023-02-21T15:46:38;9.30;;;8.10;;
1262;SDS011;62267;50.112;8.704;2023-02-21T15:49:13;9.30;;;7.00;;
1262;SDS011;62267;50.112;8.704;2023-02-21T15:51:40;13.70;;;8.90;;
1262;SDS011;62267;50.112;8.704;2023-02-21T15:56:44;11.90;;;10.10;;
1262;SDS011;62267;50.112;8.704;2023-02-21T15:59:17;14.70;;;11.17;;
1262;SDS011;62267;50.112;8.704;2023-02-21T16:01:44;17.43;;;10.37;;
1262;SDS011;62267;50.112;8.704;2023-02-21T16:04:16;12.03;;;10.40;;
1262;SDS011;62267;50.112;8.704;2023-02-21T16:06:47;12.70;;;9.70;;
1262;SDS011;62267;50.112;8.704;2023-02-21T16:09:19;13.30;;;10.40;;
1262;SDS011;62267;50.112;8.704;2023-02-21T16:11:54;22.87;;;11.37;;
1262;SDS011;62267;50.112;8.704;2023-02-21T16:16:55;11.30;;;9.70;;
1262;SDS011;62267;50.112;8.704;2023-02-21T16:19:26;14.60;;;9.70;;
1262;SDS011;62267;50.112;8.704;2023-02-21T16:24:43;10.90;;;9.33;;
1262;SDS011;62267;50.112;8.704;2023-02-21T16:27:11;12.60;;;9.27;;
1262;SDS011;62267;50.112;8.704;2023-02-21T16:29:39;12.80;;;9.63;;
1262;SDS011;62267;50.112;8.704;2023-02-21T16:32:17;13.70;;;9.90;;
1262;SDS011;62267;50.112;8.704;2023-02-21T16:34:49;12.07;;;10.53;;
1262;SDS011;62267;50.112;8.704;2023-02-21T16:37:20;16.40;;;10.80;;
1262;SDS011;62267;50.112;8.704;2023-02-21T16:39:48;15.63;;;10.23;;
1262;SDS011;62267;50.112;8.704;2023-02-21T16:42:17;10.70;;;8.77;;
1262;SDS011;62267;50.112;8.704;2023-02-21T16:44:44;15.13;;;10.27;;
1262;SDS011;62267;50.112;8.704;2023-02-21T16:47:14;12.17;;;9.63;;
1262;SDS011;62267;50.112;8.704;2023-02-21T16:49:42;16.13;;;10.73;;
1262;SDS011;62267;50.112;8.704;2023-02-21T16:52:12;14.93;;;11.50;;
1262;SDS011;62267;50.112;8.704;2023-02-21T16:54:40;18.20;;;12.07;;
1262;SDS011;62267;50.112;8.704;2023-02-21T16:57:09;17.00;;;11.67;;
1262;SDS011;62267;50.112;8.704;2023-02-21T16:59:36;16.00;;;12.37;;
1262;SDS011;62267;50.112;8.704;2023-02-21T17:02:04;15.27;;;11.60;;
1262;SDS011;62267;50.112;8.704;2023-02-21T17:04:31;17.90;;;13.13;;
1262;SDS011;62267;50.112;8.704;2023-02-21T17:07:02;18.40;;;12.90;;
1262;SDS011;62267;50.112;8.704;2023-02-21T17:09:29;20.73;;;13.97;;
1262;SDS011;62267;50.112;8.704;2023-02-21T17:12:04;22.27;;;13.20;;
1262;SDS011;62267;50.112;8.704;2023-02-21T17:14:32;19.40;;;14.13;;
1262;SDS011;62267;50.112;8.704;2023-02-21T17:17:00;15.83;;;12.97;;
1262;SDS011;62267;50.112;8.704;2023-02-21T17:19:28;15.43;;;12.20;;
1262;SDS011;62267;50.112;8.704;2023-02-21T17:21:55;21.50;;;15.20;;
1262;SDS011;62267;50.112;8.704;2023-02-21T17:24:25;24.53;;;14.90;;